sensor_id;sensor_type;location;lat;lon;timestamp;P1;durP1;ratioP1;P2;durP2;ratioP2
70414;SDS011;57837;52.064;113.478;2023-04-21T00:02:36;19.55;;;6.25;;
70414;SDS011;57837;52.064;113.478;2023-04-21T00:05:43;10.75;;;4.88;;
70414;SDS011;57837;52.064;113.478;2023-04-21T00:08:47;8.40;;;4.67;;
70414;SDS011;57837;52.064;113.478;2023-04-21T00:11:51;10.10;;;4.20;;
70414;SDS011;57837;52.064;113.478;2023-04-21T00:14:54;16.50;;;5.57;;
70414;SDS011;57837;52.064;113.478;2023-04-21T00:17:57;10.07;;;4.43;;
70414;SDS011;57837;52.064;113.478;2023-04-21T00:21:01;12.65;;;4.32;;
70414;SDS011;57837;52.064;113.478;2023-04-21T00:24:04;8.57;;;3.30;;
70414;SDS011;57837;52.064;113.478;2023-04-21T00:27:08;7.68;;;3.58;;
70414;SDS011;57837;52.064;113.478;2023-04-21T00:30:13;67.22;;;6.72;;
70414;SDS011;57837;52.064;113.478;2023-04-21T00:33:16;19.48;;;5.00;;
70414;SDS011;57837;52.064;113.478;2023-04-21T00:36:19;8.98;;;3.50;;
70414;SDS011;57837;52.064;113.478;2023-04-21T00:39:23;4.73;;;2.43;;
70414;SDS011;57837;52.064;113.478;2023-04-21T00:42:26;11.32;;;3.17;;
70414;SDS011;57837;52.064;113.478;2023-04-21T00:45:29;21.48;;;4.18;;
70414;SDS011;57837;52.064;113.478;2023-04-21T00:48:33;11.55;;;3.78;;
70414;SDS011;57837;52.064;113.478;2023-04-21T00:51:36;13.95;;;5.35;;
70414;SDS011;57837;52.064;113.478;2023-04-21T00:54:39;20.13;;;4.90;;
70414;SDS011;57837;52.064;113.478;2023-04-21T00:57:42;23.95;;;4.90;;
70414;SDS011;57837;52.064;113.478;2023-04-21T01:00:46;13.55;;;4.07;;
70414;SDS011;57837;52.064;113.478;2023-04-21T01:03:50;13.95;;;4.20;;
70414;SDS011;57837;52.064;113.478;2023-04-21T01:06:54;9.57;;;3.80;;
70414;SDS011;57837;52.064;113.478;2023-04-21T01:09:57;6.53;;;2.90;;
70414;SDS011;57837;52.064;113.478;2023-04-21T01:13:03;6.38;;;3.13;;
70414;SDS011;57837;52.064;113.478;2023-04-21T01:16:06;7.55;;;3.50;;
70414;SDS011;57837;52.064;113.478;2023-04-21T01:19:10;11.57;;;4.65;;
70414;SDS011;57837;52.064;113.478;2023-04-21T01:22:15;7.63;;;3.50;;
70414;SDS011;57837;52.064;113.478;2023-04-21T01:25:20;8.03;;;3.73;;
70414;SDS011;57837;52.064;113.478;2023-04-21T01:28:27;6.20;;;2.88;;
70414;SDS011;57837;52.064;113.478;2023-04-21T01:31:31;6.15;;;3.42;;
70414;SDS011;57837;52.064;113.478;2023-04-21T01:34:35;10.98;;;4.22;;
70414;SDS011;57837;52.064;113.478;2023-04-21T01:37:38;8.35;;;3.70;;
70414;SDS011;57837;52.064;113.478;2023-04-21T01:40:42;11.47;;;4.30;;
70414;SDS011;57837;52.064;113.478;2023-04-21T01:43:45;13.90;;;4.90;;
70414;SDS011;57837;52.064;113.478;2023-04-21T01:46:48;7.10;;;3.85;;
70414;SDS011;57837;52.064;113.478;2023-04-21T01:49:52;5.28;;;2.50;;
70414;SDS011;57837;52.064;113.478;2023-04-21T01:52:55;7.05;;;2.83;;
70414;SDS011;57837;52.064;113.478;2023-04-21T01:55:59;5.80;;;2.70;;
70414;SDS011;57837;52.064;113.478;2023-04-21T01:59:04;11.85;;;4.90;;
70414;SDS011;57837;52.064;113.478;2023-04-21T02:02:08;15.15;;;5.47;;
70414;SDS011;57837;52.064;113.478;2023-04-21T02:05:17;9.38;;;3.45;;
70414;SDS011;57837;52.064;113.478;2023-04-21T02:08:20;6.25;;;3.50;;
70414;SDS011;57837;52.064;113.478;2023-04-21T02:11:24;5.60;;;2.70;;
70414;SDS011;57837;52.064;113.478;2023-04-21T02:14:28;7.68;;;3.53;;
70414;SDS011;57837;52.064;113.478;2023-04-21T02:17:32;39.53;;;5.10;;
70414;SDS011;57837;52.064;113.478;2023-04-21T02:20:40;6.80;;;3.63;;
70414;SDS011;57837;52.064;113.478;2023-04-21T02:23:47;8.13;;;2.38;;
70414;SDS011;57837;52.064;113.478;2023-04-21T02:26:51;7.70;;;2.50;;
70414;SDS011;57837;52.064;113.478;2023-04-21T02:29:56;7.80;;;2.60;;
70414;SDS011;57837;52.064;113.478;2023-04-21T02:32:58;6.30;;;2.67;;
70414;SDS011;57837;52.064;113.478;2023-04-21T02:36:02;49.83;;;44.13;;
70414;SDS011;57837;52.064;113.478;2023-04-21T02:39:06;7.03;;;3.47;;
70414;SDS011;57837;52.064;113.478;2023-04-21T02:42:11;4.03;;;2.30;;
70414;SDS011;57837;52.064;113.478;2023-04-21T02:45:15;8.80;;;2.35;;
70414;SDS011;57837;52.064;113.478;2023-04-21T02:48:19;4.63;;;2.15;;
70414;SDS011;57837;52.064;113.478;2023-04-21T02:51:25;5.10;;;2.42;;
70414;SDS011;57837;52.064;113.478;2023-04-21T02:54:28;4.60;;;1.95;;
70414;SDS011;57837;52.064;113.478;2023-04-21T02:57:31;6.20;;;2.07;;
70414;SDS011;57837;52.064;113.478;2023-04-21T03:00:34;4.03;;;1.80;;
70414;SDS011;57837;52.064;113.478;2023-04-21T03:03:38;6.10;;;2.00;;
70414;SDS011;57837;52.064;113.478;2023-04-21T03:06:44;5.40;;;1.85;;
70414;SDS011;57837;52.064;113.478;2023-04-21T03:09:47;2.72;;;2.00;;
70414;SDS011;57837;52.064;113.478;2023-04-21T03:12:51;2.93;;;1.20;;
70414;SDS011;57837;52.064;113.478;2023-04-21T03:15:55;13.38;;;7.10;;
70414;SDS011;57837;52.064;113.478;2023-04-21T03:18:59;6.32;;;2.83;;
70414;SDS011;57837;52.064;113.478;2023-04-21T03:22:03;21.67;;;3.22;;
70414;SDS011;57837;52.064;113.478;2023-04-21T03:25:06;10.55;;;2.15;;
70414;SDS011;57837;52.064;113.478;2023-04-21T03:28:10;2.83;;;1.50;;
70414;SDS011;57837;52.064;113.478;2023-04-21T03:31:13;10.35;;;2.03;;
70414;SDS011;57837;52.064;113.478;2023-04-21T03:34:16;5.40;;;2.05;;
70414;SDS011;57837;52.064;113.478;2023-04-21T03:37:19;5.53;;;1.95;;
70414;SDS011;57837;52.064;113.478;2023-04-21T03:40:22;7.68;;;2.50;;
70414;SDS011;57837;52.064;113.478;2023-04-21T03:43:26;4.17;;;1.60;;
70414;SDS011;57837;52.064;113.478;2023-04-21T03:46:29;4.03;;;1.50;;
70414;SDS011;57837;52.064;113.478;2023-04-21T03:49:33;4.40;;;1.80;;
70414;SDS011;57837;52.064;113.478;2023-04-21T03:52:37;28.25;;;2.88;;
70414;SDS011;57837;52.064;113.478;2023-04-21T03:55:41;5.25;;;1.40;;
70414;SDS011;57837;52.064;113.478;2023-04-21T03:58:48;3.80;;;1.40;;
70414;SDS011;57837;52.064;113.478;2023-04-21T04:01:52;10.18;;;2.22;;
70414;SDS011;57837;52.064;113.478;2023-04-21T04:04:54;2.67;;;1.20;;
70414;SDS011;57837;52.064;113.478;2023-04-21T04:07:59;5.28;;;1.60;;
70414;SDS011;57837;52.064;113.478;2023-04-21T04:11:02;5.97;;;1.70;;
70414;SDS011;57837;52.064;113.478;2023-04-21T04:14:05;7.20;;;1.53;;
70414;SDS011;57837;52.064;113.478;2023-04-21T04:17:08;5.85;;;1.17;;
70414;SDS011;57837;52.064;113.478;2023-04-21T04:20:12;1.85;;;1.15;;
70414;SDS011;57837;52.064;113.478;2023-04-21T04:23:15;3.58;;;1.40;;
70414;SDS011;57837;52.064;113.478;2023-04-21T04:26:18;10.07;;;1.83;;
70414;SDS011;57837;52.064;113.478;2023-04-21T04:29:24;10.97;;;1.90;;
70414;SDS011;57837;52.064;113.478;2023-04-21T04:32:29;6.40;;;1.90;;
70414;SDS011;57837;52.064;113.478;2023-04-21T04:35:33;7.35;;;1.98;;
70414;SDS011;57837;52.064;113.478;2023-04-21T04:38:36;6.30;;;3.17;;
70414;SDS011;57837;52.064;113.478;2023-04-21T04:41:40;4.63;;;1.70;;
70414;SDS011;57837;52.064;113.478;2023-04-21T04:44:44;7.03;;;2.00;;
70414;SDS011;57837;52.064;113.478;2023-04-21T04:47:48;5.00;;;1.60;;
70414;SDS011;57837;52.064;113.478;2023-04-21T04:50:52;5.47;;;1.40;;
70414;SDS011;57837;52.064;113.478;2023-04-21T04:53:56;4.18;;;1.30;;
70414;SDS011;57837;52.064;113.478;2023-04-21T04:57:00;7.00;;;3.28;;
70414;SDS011;57837;52.064;113.478;2023-04-21T05:00:05;7.00;;;1.80;;
70414;SDS011;57837;52.064;113.478;2023-04-21T05:03:13;2.22;;;1.30;;
70414;SDS011;57837;52.064;113.478;2023-04-21T05:06:16;5.28;;;1.80;;
70414;SDS011;57837;52.064;113.478;2023-04-21T05:09:20;2.78;;;1.52;;
70414;SDS011;57837;52.064;113.478;2023-04-21T05:12:23;2.63;;;1.50;;
70414;SDS011;57837;52.064;113.478;2023-04-21T05:15:27;3.67;;;1.57;;
70414;SDS011;57837;52.064;113.478;2023-04-21T05:18:30;7.90;;;1.50;;
70414;SDS011;57837;52.064;113.478;2023-04-21T05:21:35;8.18;;;1.65;;
70414;SDS011;57837;52.064;113.478;2023-04-21T05:24:39;3.17;;;1.30;;
70414;SDS011;57837;52.064;113.478;2023-04-21T05:27:44;9.32;;;2.00;;
70414;SDS011;57837;52.064;113.478;2023-04-21T05:30:48;4.03;;;1.60;;
70414;SDS011;57837;52.064;113.478;2023-04-21T05:33:52;4.28;;;1.05;;
70414;SDS011;57837;52.064;113.478;2023-04-21T05:36:55;9.15;;;1.98;;
70414;SDS011;57837;52.064;113.478;2023-04-21T05:39:59;7.28;;;1.67;;
70414;SDS011;57837;52.064;113.478;2023-04-21T05:43:02;7.53;;;1.95;;
70414;SDS011;57837;52.064;113.478;2023-04-21T05:46:09;7.10;;;1.50;;
70414;SDS011;57837;52.064;113.478;2023-04-21T05:49:13;4.72;;;1.27;;
70414;SDS011;57837;52.064;113.478;2023-04-21T05:52:16;3.17;;;1.20;;
70414;SDS011;57837;52.064;113.478;2023-04-21T05:55:20;4.68;;;1.75;;
70414;SDS011;57837;52.064;113.478;2023-04-21T05:58:24;2.40;;;1.33;;
70414;SDS011;57837;52.064;113.478;2023-04-21T06:01:28;5.30;;;1.70;;
70414;SDS011;57837;52.064;113.478;2023-04-21T06:04:32;3.08;;;1.63;;
70414;SDS011;57837;52.064;113.478;2023-04-21T06:07:36;13.77;;;7.10;;
70414;SDS011;57837;52.064;113.478;2023-04-21T06:10:40;3.70;;;1.55;;
70414;SDS011;57837;52.064;113.478;2023-04-21T06:13:44;6.10;;;1.70;;
70414;SDS011;57837;52.064;113.478;2023-04-21T06:16:48;3.27;;;1.40;;
70414;SDS011;57837;52.064;113.478;2023-04-21T06:19:51;3.50;;;1.35;;
70414;SDS011;57837;52.064;113.478;2023-04-21T06:22:55;2.72;;;1.40;;
70414;SDS011;57837;52.064;113.478;2023-04-21T06:26:00;3.08;;;1.48;;
70414;SDS011;57837;52.064;113.478;2023-04-21T06:29:07;8.00;;;1.80;;
70414;SDS011;57837;52.064;113.478;2023-04-21T06:32:11;6.97;;;1.20;;
70414;SDS011;57837;52.064;113.478;2023-04-21T06:35:15;2.95;;;1.50;;
70414;SDS011;57837;52.064;113.478;2023-04-21T06:38:19;3.15;;;1.38;;
70414;SDS011;57837;52.064;113.478;2023-04-21T06:41:23;11.52;;;4.00;;
70414;SDS011;57837;52.064;113.478;2023-04-21T06:44:28;5.00;;;2.03;;
70414;SDS011;57837;52.064;113.478;2023-04-21T06:47:34;5.80;;;1.40;;
70414;SDS011;57837;52.064;113.478;2023-04-21T06:50:37;5.13;;;1.40;;
70414;SDS011;57837;52.064;113.478;2023-04-21T06:53:42;5.80;;;2.22;;
70414;SDS011;57837;52.064;113.478;2023-04-21T06:56:45;7.25;;;2.00;;
70414;SDS011;57837;52.064;113.478;2023-04-21T06:59:49;6.63;;;1.50;;
70414;SDS011;57837;52.064;113.478;2023-04-21T07:02:53;1.87;;;1.20;;
70414;SDS011;57837;52.064;113.478;2023-04-21T07:05:57;4.35;;;1.50;;
70414;SDS011;57837;52.064;113.478;2023-04-21T07:09:01;4.07;;;2.00;;
70414;SDS011;57837;52.064;113.478;2023-04-21T07:12:05;19.23;;;2.55;;
70414;SDS011;57837;52.064;113.478;2023-04-21T07:15:09;9.45;;;2.00;;
70414;SDS011;57837;52.064;113.478;2023-04-21T07:18:13;4.30;;;1.93;;
70414;SDS011;57837;52.064;113.478;2023-04-21T07:21:17;4.35;;;1.90;;
70414;SDS011;57837;52.064;113.478;2023-04-21T07:24:21;8.02;;;1.52;;
70414;SDS011;57837;52.064;113.478;2023-04-21T07:27:25;7.97;;;2.85;;
70414;SDS011;57837;52.064;113.478;2023-04-21T07:30:29;7.00;;;2.30;;
70414;SDS011;57837;52.064;113.478;2023-04-21T07:33:33;5.37;;;1.70;;
70414;SDS011;57837;52.064;113.478;2023-04-21T07:36:37;4.28;;;2.00;;
70414;SDS011;57837;52.064;113.478;2023-04-21T07:39:40;10.20;;;2.50;;
70414;SDS011;57837;52.064;113.478;2023-04-21T07:42:44;5.18;;;2.70;;
70414;SDS011;57837;52.064;113.478;2023-04-21T07:45:48;5.22;;;1.90;;
70414;SDS011;57837;52.064;113.478;2023-04-21T07:48:55;7.77;;;1.50;;
70414;SDS011;57837;52.064;113.478;2023-04-21T07:51:59;2.15;;;1.40;;
70414;SDS011;57837;52.064;113.478;2023-04-21T07:55:03;3.90;;;1.60;;
70414;SDS011;57837;52.064;113.478;2023-04-21T07:58:07;3.63;;;1.70;;
70414;SDS011;57837;52.064;113.478;2023-04-21T08:01:12;4.22;;;1.55;;
70414;SDS011;57837;52.064;113.478;2023-04-21T08:04:16;11.60;;;2.20;;
70414;SDS011;57837;52.064;113.478;2023-04-21T10:05:27;9.40;;;3.15;;
70414;SDS011;57837;52.064;113.478;2023-04-21T10:08:31;10.23;;;1.98;;
70414;SDS011;57837;52.064;113.478;2023-04-21T10:11:36;3.97;;;2.03;;
70414;SDS011;57837;52.064;113.478;2023-04-21T10:14:40;8.85;;;3.35;;
70414;SDS011;57837;52.064;113.478;2023-04-21T10:17:44;7.85;;;3.28;;
70414;SDS011;57837;52.064;113.478;2023-04-21T10:20:53;4.97;;;2.10;;
70414;SDS011;57837;52.064;113.478;2023-04-21T10:24:03;10.30;;;4.93;;
70414;SDS011;57837;52.064;113.478;2023-04-21T10:27:10;11.50;;;3.37;;
70414;SDS011;57837;52.064;113.478;2023-04-21T10:30:21;11.98;;;4.10;;
70414;SDS011;57837;52.064;113.478;2023-04-21T10:33:26;8.88;;;2.85;;
70414;SDS011;57837;52.064;113.478;2023-04-21T10:36:30;14.60;;;6.47;;
70414;SDS011;57837;52.064;113.478;2023-04-21T10:39:41;8.15;;;2.60;;
70414;SDS011;57837;52.064;113.478;2023-04-21T10:42:45;6.47;;;2.70;;
70414;SDS011;57837;52.064;113.478;2023-04-21T10:45:49;25.42;;;3.72;;
70414;SDS011;57837;52.064;113.478;2023-04-21T10:48:53;9.68;;;3.05;;
70414;SDS011;57837;52.064;113.478;2023-04-21T10:55:07;9.90;;;2.28;;
70414;SDS011;57837;52.064;113.478;2023-04-21T10:58:15;7.37;;;2.90;;
70414;SDS011;57837;52.064;113.478;2023-04-21T11:01:19;18.15;;;4.47;;
70414;SDS011;57837;52.064;113.478;2023-04-21T11:04:23;8.73;;;3.88;;
70414;SDS011;57837;52.064;113.478;2023-04-21T11:07:27;13.80;;;4.97;;
70414;SDS011;57837;52.064;113.478;2023-04-21T11:14:04;16.33;;;6.47;;
70414;SDS011;57837;52.064;113.478;2023-04-21T11:17:14;20.35;;;5.90;;
70414;SDS011;57837;52.064;113.478;2023-04-21T11:20:18;16.40;;;6.30;;
70414;SDS011;57837;52.064;113.478;2023-04-21T11:23:22;22.80;;;9.10;;
70414;SDS011;57837;52.064;113.478;2023-04-21T11:26:35;19.55;;;6.22;;
70414;SDS011;57837;52.064;113.478;2023-04-21T11:29:44;20.23;;;9.43;;
70414;SDS011;57837;52.064;113.478;2023-04-21T11:32:53;23.25;;;9.82;;
70414;SDS011;57837;52.064;113.478;2023-04-21T11:35:57;25.00;;;9.90;;
70414;SDS011;57837;52.064;113.478;2023-04-21T11:39:03;30.65;;;11.50;;
70414;SDS011;57837;52.064;113.478;2023-04-21T11:42:09;36.30;;;13.10;;
70414;SDS011;57837;52.064;113.478;2023-04-21T11:45:17;36.70;;;14.67;;
70414;SDS011;57837;52.064;113.478;2023-04-21T11:48:28;38.00;;;14.00;;
70414;SDS011;57837;52.064;113.478;2023-04-21T11:51:34;42.20;;;14.32;;
70414;SDS011;57837;52.064;113.478;2023-04-21T11:54:39;52.97;;;16.80;;
70414;SDS011;57837;52.064;113.478;2023-04-21T11:57:42;57.50;;;17.90;;
70414;SDS011;57837;52.064;113.478;2023-04-21T12:00:45;67.97;;;22.07;;
70414;SDS011;57837;52.064;113.478;2023-04-21T12:03:50;110.80;;;35.85;;
70414;SDS011;57837;52.064;113.478;2023-04-21T12:06:59;133.20;;;42.60;;
70414;SDS011;57837;52.064;113.478;2023-04-21T12:10:14;121.88;;;42.25;;
70414;SDS011;57837;52.064;113.478;2023-04-21T12:13:23;117.97;;;39.67;;
70414;SDS011;57837;52.064;113.478;2023-04-21T12:16:29;129.53;;;42.57;;
70414;SDS011;57837;52.064;113.478;2023-04-21T12:19:36;162.50;;;53.45;;
70414;SDS011;57837;52.064;113.478;2023-04-21T12:22:41;177.13;;;54.67;;
70414;SDS011;57837;52.064;113.478;2023-04-21T12:25:45;131.32;;;45.20;;
70414;SDS011;57837;52.064;113.478;2023-04-21T12:28:51;127.57;;;42.83;;
70414;SDS011;57837;52.064;113.478;2023-04-21T12:31:54;127.70;;;42.33;;
70414;SDS011;57837;52.064;113.478;2023-04-21T12:34:57;134.40;;;42.78;;
70414;SDS011;57837;52.064;113.478;2023-04-21T12:38:02;92.50;;;35.47;;
70414;SDS011;57837;52.064;113.478;2023-04-21T12:41:06;91.53;;;32.20;;
70414;SDS011;57837;52.064;113.478;2023-04-21T12:44:09;102.70;;;36.45;;
70414;SDS011;57837;52.064;113.478;2023-04-21T12:47:13;92.50;;;35.93;;
70414;SDS011;57837;52.064;113.478;2023-04-21T12:50:16;85.70;;;32.92;;
70414;SDS011;57837;52.064;113.478;2023-04-21T12:53:20;87.63;;;32.40;;
70414;SDS011;57837;52.064;113.478;2023-04-21T12:56:23;84.47;;;34.17;;
70414;SDS011;57837;52.064;113.478;2023-04-21T12:59:26;95.15;;;38.25;;
70414;SDS011;57837;52.064;113.478;2023-04-21T13:02:30;72.40;;;29.73;;
70414;SDS011;57837;52.064;113.478;2023-04-21T13:05:39;119.15;;;48.50;;
70414;SDS011;57837;52.064;113.478;2023-04-21T13:08:43;102.38;;;45.15;;
70414;SDS011;57837;52.064;113.478;2023-04-21T13:11:46;81.65;;;34.70;;
70414;SDS011;57837;52.064;113.478;2023-04-21T13:14:50;106.45;;;42.25;;
70414;SDS011;57837;52.064;113.478;2023-04-21T13:17:53;113.07;;;44.73;;
70414;SDS011;57837;52.064;113.478;2023-04-21T13:20:57;107.40;;;39.95;;
70414;SDS011;57837;52.064;113.478;2023-04-21T13:24:01;74.68;;;30.67;;
70414;SDS011;57837;52.064;113.478;2023-04-21T13:27:05;75.20;;;26.90;;
70414;SDS011;57837;52.064;113.478;2023-04-21T13:30:09;78.25;;;29.08;;
70414;SDS011;57837;52.064;113.478;2023-04-21T13:33:13;67.63;;;27.50;;
70414;SDS011;57837;52.064;113.478;2023-04-21T13:36:18;62.28;;;24.25;;
70414;SDS011;57837;52.064;113.478;2023-04-21T13:39:22;52.13;;;22.77;;
70414;SDS011;57837;52.064;113.478;2023-04-21T13:42:25;50.35;;;20.55;;
70414;SDS011;57837;52.064;113.478;2023-04-21T13:45:31;51.35;;;21.00;;
70414;SDS011;57837;52.064;113.478;2023-04-21T13:48:34;52.70;;;21.70;;
70414;SDS011;57837;52.064;113.478;2023-04-21T13:51:39;56.85;;;23.13;;
70414;SDS011;57837;52.064;113.478;2023-04-21T13:54:42;76.85;;;29.05;;
70414;SDS011;57837;52.064;113.478;2023-04-21T13:57:46;99.80;;;32.42;;
70414;SDS011;57837;52.064;113.478;2023-04-21T14:00:49;117.18;;;43.28;;
70414;SDS011;57837;52.064;113.478;2023-04-21T14:03:52;110.47;;;42.57;;
70414;SDS011;57837;52.064;113.478;2023-04-21T14:06:56;108.55;;;40.40;;
70414;SDS011;57837;52.064;113.478;2023-04-21T14:10:00;117.40;;;40.30;;
70414;SDS011;57837;52.064;113.478;2023-04-21T14:13:04;87.38;;;30.40;;
70414;SDS011;57837;52.064;113.478;2023-04-21T14:16:07;101.38;;;35.47;;
70414;SDS011;57837;52.064;113.478;2023-04-21T14:19:10;159.40;;;54.03;;
70414;SDS011;57837;52.064;113.478;2023-04-21T14:22:13;159.05;;;54.70;;
70414;SDS011;57837;52.064;113.478;2023-04-21T14:25:16;180.02;;;62.20;;
70414;SDS011;57837;52.064;113.478;2023-04-21T14:28:20;162.07;;;50.00;;
70414;SDS011;57837;52.064;113.478;2023-04-21T14:31:23;128.18;;;42.58;;
70414;SDS011;57837;52.064;113.478;2023-04-21T14:34:26;80.43;;;29.87;;
70414;SDS011;57837;52.064;113.478;2023-04-21T14:37:29;54.33;;;24.38;;
70414;SDS011;57837;52.064;113.478;2023-04-21T14:40:33;70.80;;;24.83;;
70414;SDS011;57837;52.064;113.478;2023-04-21T14:43:37;77.72;;;28.48;;
70414;SDS011;57837;52.064;113.478;2023-04-21T14:46:41;76.03;;;25.93;;
70414;SDS011;57837;52.064;113.478;2023-04-21T14:49:58;70.25;;;22.98;;
70414;SDS011;57837;52.064;113.478;2023-04-21T14:53:02;96.72;;;30.75;;
70414;SDS011;57837;52.064;113.478;2023-04-21T14:56:05;99.47;;;32.00;;
70414;SDS011;57837;52.064;113.478;2023-04-21T14:59:08;102.07;;;34.13;;
70414;SDS011;57837;52.064;113.478;2023-04-21T15:02:11;80.47;;;29.67;;
70414;SDS011;57837;52.064;113.478;2023-04-21T15:05:15;72.63;;;27.13;;
70414;SDS011;57837;52.064;113.478;2023-04-21T15:08:20;95.82;;;33.03;;
70414;SDS011;57837;52.064;113.478;2023-04-21T15:11:24;115.50;;;38.25;;
70414;SDS011;57837;52.064;113.478;2023-04-21T15:14:28;100.13;;;34.83;;
70414;SDS011;57837;52.064;113.478;2023-04-21T15:17:31;106.28;;;34.28;;
70414;SDS011;57837;52.064;113.478;2023-04-21T15:20:34;72.22;;;23.98;;
70414;SDS011;57837;52.064;113.478;2023-04-21T15:23:46;65.20;;;25.52;;
70414;SDS011;57837;52.064;113.478;2023-04-21T15:26:49;67.53;;;22.77;;
70414;SDS011;57837;52.064;113.478;2023-04-21T15:29:52;69.45;;;24.45;;
70414;SDS011;57837;52.064;113.478;2023-04-21T15:32:56;61.35;;;23.00;;
70414;SDS011;57837;52.064;113.478;2023-04-21T15:36:00;71.57;;;23.00;;
70414;SDS011;57837;52.064;113.478;2023-04-21T15:39:04;77.35;;;27.23;;
70414;SDS011;57837;52.064;113.478;2023-04-21T15:42:08;73.80;;;24.98;;
70414;SDS011;57837;52.064;113.478;2023-04-21T15:45:11;70.78;;;24.48;;
70414;SDS011;57837;52.064;113.478;2023-04-21T15:48:15;73.33;;;23.13;;
70414;SDS011;57837;52.064;113.478;2023-04-21T15:51:19;64.30;;;21.98;;
70414;SDS011;57837;52.064;113.478;2023-04-21T15:54:23;54.75;;;20.33;;
70414;SDS011;57837;52.064;113.478;2023-04-21T15:57:26;54.70;;;20.15;;
70414;SDS011;57837;52.064;113.478;2023-04-21T16:00:32;60.97;;;20.33;;
70414;SDS011;57837;52.064;113.478;2023-04-21T16:03:35;42.03;;;16.52;;
70414;SDS011;57837;52.064;113.478;2023-04-21T16:06:40;60.33;;;18.23;;
70414;SDS011;57837;52.064;113.478;2023-04-21T16:09:43;57.45;;;20.13;;
70414;SDS011;57837;52.064;113.478;2023-04-21T16:12:48;57.70;;;17.87;;
70414;SDS011;57837;52.064;113.478;2023-04-21T16:15:53;51.63;;;19.92;;
70414;SDS011;57837;52.064;113.478;2023-04-21T16:18:56;71.07;;;22.00;;
70414;SDS011;57837;52.064;113.478;2023-04-21T16:22:00;61.55;;;20.33;;
70414;SDS011;57837;52.064;113.478;2023-04-21T16:25:05;55.53;;;20.60;;
70414;SDS011;57837;52.064;113.478;2023-04-21T16:28:09;54.10;;;17.95;;
70414;SDS011;57837;52.064;113.478;2023-04-21T16:31:15;52.20;;;18.15;;
70414;SDS011;57837;52.064;113.478;2023-04-21T16:34:19;62.10;;;22.08;;
70414;SDS011;57837;52.064;113.478;2023-04-21T16:37:23;77.93;;;23.63;;
70414;SDS011;57837;52.064;113.478;2023-04-21T16:40:27;89.35;;;25.80;;
70414;SDS011;57837;52.064;113.478;2023-04-21T16:43:30;78.78;;;27.33;;
70414;SDS011;57837;52.064;113.478;2023-04-21T16:46:34;96.93;;;30.90;;
70414;SDS011;57837;52.064;113.478;2023-04-21T16:49:38;82.60;;;29.17;;
70414;SDS011;57837;52.064;113.478;2023-04-21T16:52:41;92.28;;;30.42;;
70414;SDS011;57837;52.064;113.478;2023-04-21T16:55:45;93.20;;;31.70;;
70414;SDS011;57837;52.064;113.478;2023-04-21T16:58:49;87.20;;;29.90;;
70414;SDS011;57837;52.064;113.478;2023-04-21T17:01:52;80.07;;;24.90;;
70414;SDS011;57837;52.064;113.478;2023-04-21T17:04:56;68.50;;;22.77;;
70414;SDS011;57837;52.064;113.478;2023-04-21T17:07:59;71.60;;;22.52;;
70414;SDS011;57837;52.064;113.478;2023-04-21T17:11:03;83.00;;;24.58;;
70414;SDS011;57837;52.064;113.478;2023-04-21T17:14:06;66.82;;;21.38;;
70414;SDS011;57837;52.064;113.478;2023-04-21T17:17:10;69.65;;;20.02;;
70414;SDS011;57837;52.064;113.478;2023-04-21T17:20:14;51.70;;;16.93;;
70414;SDS011;57837;52.064;113.478;2023-04-21T17:23:18;54.65;;;16.30;;
70414;SDS011;57837;52.064;113.478;2023-04-21T17:26:21;48.33;;;15.00;;
70414;SDS011;57837;52.064;113.478;2023-04-21T17:29:25;37.58;;;13.30;;
70414;SDS011;57837;52.064;113.478;2023-04-21T17:32:28;36.33;;;11.87;;
70414;SDS011;57837;52.064;113.478;2023-04-21T17:35:34;33.20;;;11.75;;
70414;SDS011;57837;52.064;113.478;2023-04-21T17:38:42;32.45;;;11.93;;
70414;SDS011;57837;52.064;113.478;2023-04-21T17:41:45;36.30;;;11.03;;
70414;SDS011;57837;52.064;113.478;2023-04-21T17:44:50;29.70;;;10.98;;
70414;SDS011;57837;52.064;113.478;2023-04-21T17:47:54;24.08;;;7.68;;
70414;SDS011;57837;52.064;113.478;2023-04-21T17:50:58;27.80;;;9.65;;
70414;SDS011;57837;52.064;113.478;2023-04-21T17:54:01;24.48;;;9.32;;
70414;SDS011;57837;52.064;113.478;2023-04-21T17:57:06;24.90;;;9.48;;
70414;SDS011;57837;52.064;113.478;2023-04-21T18:00:09;32.35;;;13.50;;
70414;SDS011;57837;52.064;113.478;2023-04-21T18:03:14;41.60;;;15.03;;
70414;SDS011;57837;52.064;113.478;2023-04-21T18:06:21;33.85;;;15.07;;
70414;SDS011;57837;52.064;113.478;2023-04-21T18:09:25;29.23;;;12.30;;
70414;SDS011;57837;52.064;113.478;2023-04-21T18:12:28;23.90;;;10.43;;
70414;SDS011;57837;52.064;113.478;2023-04-21T18:15:31;27.63;;;9.95;;
70414;SDS011;57837;52.064;113.478;2023-04-21T18:18:34;29.00;;;11.23;;
70414;SDS011;57837;52.064;113.478;2023-04-21T18:21:37;33.53;;;12.18;;
70414;SDS011;57837;52.064;113.478;2023-04-21T18:24:41;43.53;;;15.77;;
70414;SDS011;57837;52.064;113.478;2023-04-21T18:27:45;46.70;;;16.67;;
70414;SDS011;57837;52.064;113.478;2023-04-21T18:30:48;31.08;;;14.68;;
70414;SDS011;57837;52.064;113.478;2023-04-21T18:33:51;28.30;;;12.10;;
70414;SDS011;57837;52.064;113.478;2023-04-21T18:36:55;28.40;;;12.13;;
70414;SDS011;57837;52.064;113.478;2023-04-21T18:39:58;26.55;;;10.65;;
70414;SDS011;57837;52.064;113.478;2023-04-21T18:43:04;23.87;;;10.77;;
70414;SDS011;57837;52.064;113.478;2023-04-21T18:46:08;20.88;;;11.02;;
70414;SDS011;57837;52.064;113.478;2023-04-21T18:49:11;22.58;;;11.23;;
70414;SDS011;57837;52.064;113.478;2023-04-21T18:52:14;31.00;;;13.32;;
70414;SDS011;57837;52.064;113.478;2023-04-21T18:55:18;23.13;;;10.00;;
70414;SDS011;57837;52.064;113.478;2023-04-21T18:58:22;24.13;;;10.40;;
70414;SDS011;57837;52.064;113.478;2023-04-21T19:01:25;22.23;;;10.65;;
70414;SDS011;57837;52.064;113.478;2023-04-21T19:04:29;20.83;;;10.50;;
70414;SDS011;57837;52.064;113.478;2023-04-21T19:07:32;24.80;;;10.73;;
70414;SDS011;57837;52.064;113.478;2023-04-21T19:10:36;22.45;;;9.95;;
70414;SDS011;57837;52.064;113.478;2023-04-21T19:13:40;24.13;;;9.03;;
70414;SDS011;57837;52.064;113.478;2023-04-21T19:16:43;24.83;;;8.13;;
70414;SDS011;57837;52.064;113.478;2023-04-21T19:19:47;16.75;;;7.97;;
70414;SDS011;57837;52.064;113.478;2023-04-21T19:22:50;21.00;;;8.23;;
70414;SDS011;57837;52.064;113.478;2023-04-21T19:25:54;18.92;;;9.18;;
70414;SDS011;57837;52.064;113.478;2023-04-21T19:28:58;16.65;;;9.65;;
70414;SDS011;57837;52.064;113.478;2023-04-21T19:32:04;23.77;;;9.20;;
70414;SDS011;57837;52.064;113.478;2023-04-21T19:35:09;17.43;;;8.30;;
70414;SDS011;57837;52.064;113.478;2023-04-21T19:38:12;17.42;;;6.97;;
70414;SDS011;57837;52.064;113.478;2023-04-21T19:41:16;16.10;;;7.25;;
70414;SDS011;57837;52.064;113.478;2023-04-21T19:44:20;15.60;;;7.77;;
70414;SDS011;57837;52.064;113.478;2023-04-21T19:47:24;19.15;;;7.78;;